createdAt,value
2019-03-03T00:01:40.039Z,37.20
2019-03-03T00:04:09.326Z,34.00
2019-03-03T00:06:38.674Z,37.60
2019-03-03T00:09:08.853Z,36.50
2019-03-03T00:11:39.096Z,38.63
2019-03-03T00:14:08.420Z,36.70
2019-03-03T00:16:37.784Z,33.33
2019-03-03T00:19:08.130Z,36.13
2019-03-03T00:21:37.476Z,35.23
2019-03-03T00:24:06.914Z,34.63
2019-03-03T00:26:36.260Z,32.37
2019-03-03T00:29:05.573Z,33.10
2019-03-03T00:31:39.656Z,37.23
2019-03-03T00:34:08.965Z,35.57
2019-03-03T00:36:56.393Z,35.47
2019-03-03T00:39:40.652Z,35.17
2019-03-03T00:42:27.499Z,32.70
2019-03-03T00:45:11.668Z,33.83
2019-03-03T00:47:59.963Z,36.13
2019-03-03T00:50:39.429Z,35.33
2019-03-03T00:53:27.748Z,37.90
2019-03-03T00:56:31.201Z,35.30
2019-03-03T00:59:20.544Z,34.70
2019-03-03T01:02:01.340Z,38.23
2019-03-03T01:04:48.361Z,33.13
2019-03-03T01:07:52.087Z,34.97
2019-03-03T01:10:38.856Z,31.90
2019-03-03T01:13:19.333Z,36.67
2019-03-03T01:16:06.132Z,34.13
2019-03-03T01:18:57.332Z,38.00
2019-03-03T01:21:49.410Z,33.63
2019-03-03T01:24:36.492Z,34.10
2019-03-03T01:27:05.771Z,34.83
2019-03-03T01:29:35.148Z,38.10
2019-03-03T01:32:04.533Z,37.60
2019-03-03T01:34:33.863Z,33.00
2019-03-03T01:37:03.209Z,32.40
2019-03-03T01:39:32.537Z,34.80
2019-03-03T01:42:01.933Z,32.17
2019-03-03T01:44:31.208Z,31.67
2019-03-03T01:47:00.527Z,32.23
2019-03-03T01:49:29.801Z,36.03
2019-03-03T01:51:59.126Z,32.57
2019-03-03T01:54:28.411Z,34.00
2019-03-03T01:56:57.845Z,33.63
2019-03-03T01:59:27.144Z,31.67
2019-03-03T02:01:56.557Z,33.47
2019-03-03T02:04:25.876Z,34.00
2019-03-03T02:06:55.157Z,31.80
2019-03-03T02:09:24.632Z,32.47
2019-03-03T02:11:54.136Z,33.43
2019-03-03T02:14:23.536Z,32.60
2019-03-03T02:16:52.822Z,30.80
2019-03-03T02:19:22.205Z,32.90
2019-03-03T02:21:51.482Z,27.80
2019-03-03T02:24:21.291Z,30.10
2019-03-03T02:26:50.607Z,30.47
2019-03-03T02:29:19.937Z,31.77
2019-03-03T02:31:49.927Z,29.33
2019-03-03T02:34:19.212Z,29.23
2019-03-03T02:36:49.473Z,31.70
2019-03-03T02:39:19.917Z,27.00
2019-03-03T02:41:49.201Z,27.90
2019-03-03T02:44:18.612Z,31.87
2019-03-03T02:46:47.929Z,30.13
2019-03-03T02:49:17.229Z,29.33
2019-03-03T02:51:46.565Z,26.30
2019-03-03T02:54:15.858Z,27.30
2019-03-03T02:56:45.227Z,28.07
2019-03-03T02:59:14.621Z,27.23
2019-03-03T03:01:48.789Z,25.63
2019-03-03T03:04:18.078Z,26.47
2019-03-03T03:06:55.172Z,25.23
2019-03-03T03:09:27.377Z,24.57
2019-03-03T03:12:19.281Z,27.27
2019-03-03T03:15:13.595Z,27.03
2019-03-03T03:17:53.331Z,24.10
2019-03-03T03:20:44.638Z,23.30
2019-03-03T03:23:45.045Z,27.03
2019-03-03T03:26:22.654Z,25.23
2019-03-03T03:29:11.083Z,28.53
2019-03-03T03:31:48.758Z,24.03
2019-03-03T03:34:25.885Z,24.00
2019-03-03T03:37:19.979Z,26.37
2019-03-03T03:40:14.459Z,24.77
2019-03-03T03:43:18.128Z,26.47
2019-03-03T03:45:55.253Z,24.27
2019-03-03T03:48:37.064Z,23.27
2019-03-03T03:51:43.725Z,27.77
2019-03-03T03:54:34.034Z,29.13
2019-03-03T03:57:37.319Z,25.73
2019-03-03T04:00:26.440Z,27.00
2019-03-03T04:03:20.641Z,28.83
2019-03-03T04:05:59.211Z,28.83
2019-03-03T04:08:44.294Z,26.57
2019-03-03T04:11:33.561Z,27.43
2019-03-03T04:14:24.412Z,26.07
2019-03-03T04:17:07.569Z,27.30
2019-03-03T04:19:46.393Z,26.40
2019-03-03T04:22:23.453Z,24.97
2019-03-03T04:25:24.136Z,24.33
2019-03-03T04:28:11.220Z,24.43
2019-03-03T04:31:02.481Z,25.60
2019-03-03T04:33:47.728Z,22.47
2019-03-03T04:36:54.160Z,23.93
2019-03-03T04:39:42.104Z,22.93
2019-03-03T04:42:39.389Z,22.80
2019-03-03T04:45:22.661Z,22.83
2019-03-03T04:48:07.955Z,19.07
2019-03-03T04:51:05.042Z,19.27
2019-03-03T04:53:48.780Z,19.17
2019-03-03T04:56:35.695Z,17.93
2019-03-03T04:59:18.504Z,15.63
2019-03-03T05:02:04.006Z,15.83
2019-03-03T05:04:47.692Z,12.50
2019-03-03T05:07:39.591Z,13.87
2019-03-03T05:10:27.905Z,13.73
2019-03-03T05:13:06.055Z,13.63
2019-03-03T05:16:03.221Z,11.70
2019-03-03T05:18:47.700Z,10.97
2019-03-03T05:21:17.034Z,11.83
2019-03-03T05:23:46.360Z,11.50
2019-03-03T05:26:15.680Z,14.33
2019-03-03T05:28:46.011Z,11.20
2019-03-03T05:31:15.364Z,10.93
2019-03-03T05:33:45.620Z,10.53
2019-03-03T05:36:14.914Z,11.50
2019-03-03T05:38:44.308Z,10.13
2019-03-03T05:41:13.661Z,9.70
2019-03-03T05:43:42.954Z,10.77
2019-03-03T05:46:12.303Z,9.60
2019-03-03T05:48:41.627Z,9.47
2019-03-03T05:51:10.975Z,10.07
2019-03-03T05:53:40.249Z,9.93
2019-03-03T05:56:10.644Z,10.43
2019-03-03T05:58:40.005Z,9.20
2019-03-03T06:01:09.320Z,9.77
2019-03-03T06:03:38.592Z,9.10
2019-03-03T06:06:07.921Z,9.17
2019-03-03T06:08:37.247Z,8.70
2019-03-03T06:11:06.595Z,9.10
2019-03-03T06:13:36.005Z,9.67
2019-03-03T06:16:05.280Z,9.83
2019-03-03T06:18:34.613Z,8.93
2019-03-03T06:21:03.956Z,8.33
2019-03-03T06:23:33.943Z,7.77
2019-03-03T06:26:03.290Z,8.10
2019-03-03T06:28:32.591Z,8.07
2019-03-03T06:31:01.852Z,8.23
2019-03-03T06:33:31.154Z,8.07
2019-03-03T06:36:00.495Z,7.57
2019-03-03T06:38:29.812Z,8.50
2019-03-03T06:40:59.258Z,8.43
2019-03-03T06:43:28.560Z,7.87
2019-03-03T06:45:57.852Z,8.13
2019-03-03T06:48:27.172Z,8.70
2019-03-03T06:50:56.504Z,8.30
2019-03-03T06:53:25.797Z,7.53
2019-03-03T06:55:55.115Z,8.93
2019-03-03T06:58:24.440Z,7.57
2019-03-03T07:00:53.764Z,6.97
2019-03-03T07:03:23.057Z,7.90
2019-03-03T07:05:52.384Z,7.83
2019-03-03T07:08:21.728Z,7.33
2019-03-03T07:10:51.096Z,7.43
2019-03-03T07:13:20.395Z,7.73
2019-03-03T07:15:49.704Z,6.53
2019-03-03T07:18:18.985Z,7.07
2019-03-03T07:20:48.351Z,8.43
2019-03-03T07:23:17.624Z,9.40
2019-03-03T07:25:46.896Z,6.73
2019-03-03T07:28:17.281Z,6.83
2019-03-03T07:30:47.268Z,9.07
2019-03-03T07:33:36.532Z,11.83
2019-03-03T07:36:05.804Z,9.60
2019-03-03T07:38:35.139Z,7.53
2019-03-03T07:41:04.407Z,9.30
2019-03-03T07:43:33.699Z,8.37
2019-03-03T07:46:03.049Z,12.97
2019-03-03T07:48:32.320Z,11.23
2019-03-03T07:51:01.649Z,16.97
2019-03-03T07:53:30.959Z,8.57
2019-03-03T07:56:00.226Z,7.00
2019-03-03T07:58:29.625Z,6.83
2019-03-03T08:00:58.894Z,7.27
2019-03-03T08:03:28.230Z,6.80
2019-03-03T08:05:57.540Z,6.53
2019-03-03T08:08:26.813Z,7.00
2019-03-03T08:10:56.140Z,6.80
2019-03-03T08:13:25.413Z,7.87
2019-03-03T08:15:54.703Z,8.10
2019-03-03T08:18:24.121Z,7.13
2019-03-03T08:20:53.404Z,6.50
2019-03-03T08:23:22.725Z,9.13
2019-03-03T08:25:52.032Z,12.10
2019-03-03T08:28:21.356Z,12.00
2019-03-03T08:30:50.655Z,14.50
2019-03-03T08:33:19.980Z,20.23
2019-03-03T08:35:49.324Z,16.73
2019-03-03T08:38:18.659Z,17.40
2019-03-03T08:40:47.951Z,17.60
2019-03-03T08:43:29.613Z,11.80
2019-03-03T08:46:12.604Z,19.47
2019-03-03T08:49:09.810Z,21.37
2019-03-03T08:52:00.994Z,16.37
2019-03-03T08:55:00.077Z,10.40
2019-03-03T08:57:46.329Z,7.53
2019-03-03T09:00:42.008Z,6.50
2019-03-03T09:03:28.997Z,7.00
2019-03-03T09:06:23.285Z,8.60
2019-03-03T09:09:11.548Z,8.17
2019-03-03T09:12:06.911Z,10.80
2019-03-03T09:15:04.319Z,7.53
2019-03-03T09:17:45.917Z,8.97
2019-03-03T09:20:20.656Z,8.07
2019-03-03T09:23:06.934Z,8.23
2019-03-03T09:25:55.228Z,7.50
2019-03-03T09:28:46.743Z,9.40
2019-03-03T09:31:37.620Z,8.83
2019-03-03T09:34:24.784Z,8.50
2019-03-03T09:37:15.682Z,6.23
2019-03-03T09:40:22.063Z,5.83
2019-03-03T09:43:10.463Z,5.33
2019-03-03T09:45:58.754Z,6.70
2019-03-03T09:48:53.328Z,6.80
2019-03-03T09:51:32.364Z,6.53
2019-03-03T09:54:12.873Z,8.00
2019-03-03T09:57:00.000Z,8.90
2019-03-03T09:59:37.755Z,7.60
2019-03-03T10:02:32.132Z,6.87
2019-03-03T10:05:26.404Z,6.00
2019-03-03T10:08:27.068Z,6.33
2019-03-03T10:11:27.734Z,6.70
2019-03-03T10:14:28.098Z,5.90
2019-03-03T10:17:31.714Z,5.63
2019-03-03T10:20:14.084Z,6.10
2019-03-03T10:23:11.769Z,5.30
2019-03-03T10:26:00.020Z,5.30
2019-03-03T10:28:48.308Z,5.40
2019-03-03T10:31:48.865Z,5.13
2019-03-03T10:34:43.261Z,6.17
2019-03-03T10:37:37.373Z,4.60
2019-03-03T10:40:44.328Z,5.70
2019-03-03T10:43:24.414Z,6.50
2019-03-03T10:46:31.014Z,4.80
2019-03-03T10:49:17.999Z,5.17
2019-03-03T10:52:07.382Z,4.50
2019-03-03T10:54:58.814Z,4.13
2019-03-03T10:57:36.972Z,5.87
2019-03-03T11:00:45.927Z,5.13
2019-03-03T11:03:22.711Z,4.50
2019-03-03T11:06:10.441Z,3.33
2019-03-03T11:09:01.244Z,3.73
2019-03-03T11:11:46.087Z,4.83
2019-03-03T11:14:33.222Z,3.40
2019-03-03T11:17:24.235Z,3.03
2019-03-03T11:20:05.201Z,2.83
2019-03-03T11:23:08.686Z,4.20
2019-03-03T11:25:56.892Z,3.70
2019-03-03T11:28:33.319Z,3.40
2019-03-03T11:31:33.899Z,4.30
2019-03-03T11:34:17.031Z,3.97
2019-03-03T11:37:14.909Z,5.07
2019-03-03T11:40:02.250Z,2.87
2019-03-03T11:42:46.998Z,3.60
2019-03-03T11:45:38.017Z,2.77
2019-03-03T11:48:33.521Z,3.20
2019-03-03T11:51:21.857Z,4.40
2019-03-03T11:54:06.215Z,4.73
2019-03-03T11:56:42.178Z,4.40
2019-03-03T11:59:29.350Z,3.03
2019-03-03T12:02:16.254Z,4.27
2019-03-03T12:05:10.675Z,3.13
2019-03-03T12:08:05.108Z,3.60
2019-03-03T12:10:56.456Z,3.17
2019-03-03T12:13:45.764Z,2.80
2019-03-03T12:16:43.092Z,4.07
2019-03-03T12:19:31.164Z,4.93
2019-03-03T12:22:20.493Z,3.07
2019-03-03T12:25:01.222Z,2.93
2019-03-03T12:27:52.359Z,2.60
2019-03-03T12:30:33.280Z,4.03
2019-03-03T12:33:22.983Z,2.80
2019-03-03T12:36:20.603Z,3.17
2019-03-03T12:38:58.946Z,3.47
2019-03-03T12:41:50.389Z,3.30
2019-03-03T12:44:25.161Z,4.33
2019-03-03T12:47:19.288Z,2.97
2019-03-03T12:50:07.633Z,2.90
2019-03-03T12:53:01.845Z,3.43
2019-03-03T12:55:39.691Z,4.60
2019-03-03T12:58:26.512Z,3.03
2019-03-03T13:01:17.756Z,3.73
2019-03-03T13:03:54.541Z,3.03
2019-03-03T13:06:31.404Z,3.30
2019-03-03T13:09:10.691Z,3.97
2019-03-03T13:12:02.022Z,3.90
2019-03-03T13:14:53.247Z,3.87
2019-03-03T13:17:48.201Z,3.67
2019-03-03T13:20:22.192Z,3.17
2019-03-03T13:23:13.240Z,5.47
2019-03-03T13:25:55.804Z,2.50
2019-03-03T13:28:42.721Z,4.40
2019-03-03T13:31:27.728Z,3.72
2019-03-03T13:34:06.931Z,3.65
2019-03-03T13:36:54.013Z,10.80
2019-03-03T13:39:42.352Z,3.37
2019-03-03T13:42:29.709Z,3.90
2019-03-03T13:44:59.032Z,4.30
2019-03-03T13:47:28.344Z,4.50
2019-03-03T13:49:57.693Z,3.17
2019-03-03T13:52:27.074Z,3.53
2019-03-03T13:54:56.412Z,4.00
2019-03-03T13:57:25.755Z,2.47
2019-03-03T13:59:55.140Z,3.03
2019-03-03T14:02:24.884Z,5.13
2019-03-03T14:04:55.004Z,4.87
2019-03-03T14:07:24.688Z,4.53
2019-03-03T14:09:54.233Z,2.60
2019-03-03T14:12:23.524Z,2.83
2019-03-03T14:14:52.864Z,3.23
2019-03-03T14:17:22.151Z,3.20
2019-03-03T14:19:51.604Z,4.13
2019-03-03T14:22:20.908Z,9.13
2019-03-03T14:24:50.504Z,2.50
2019-03-03T14:27:19.916Z,4.53
2019-03-03T14:29:49.247Z,3.23
2019-03-03T14:32:18.728Z,3.20
2019-03-03T14:34:48.040Z,3.13
2019-03-03T14:37:17.402Z,4.83
2019-03-03T14:39:46.864Z,4.97
2019-03-03T14:42:16.326Z,1.90
2019-03-03T14:44:45.648Z,2.30
2019-03-03T14:47:14.960Z,3.13
2019-03-03T14:49:44.418Z,4.47
2019-03-03T14:52:13.752Z,3.43
2019-03-03T14:54:43.081Z,3.37
2019-03-03T14:57:12.468Z,3.33
2019-03-03T14:59:41.988Z,2.10
2019-03-03T15:02:11.405Z,2.97
2019-03-03T15:04:40.702Z,1.53
2019-03-03T15:07:10.194Z,2.10
2019-03-03T15:09:39.509Z,2.03
2019-03-03T15:12:08.866Z,2.30
2019-03-03T15:14:38.231Z,2.97
2019-03-03T15:17:07.585Z,2.07
2019-03-03T15:19:36.923Z,2.53
2019-03-03T15:22:06.354Z,2.50
2019-03-03T15:24:35.641Z,3.33
2019-03-03T15:27:05.136Z,3.30
2019-03-03T15:29:34.448Z,3.23
2019-03-03T15:32:03.955Z,1.70
2019-03-03T15:34:33.380Z,6.33
2019-03-03T15:37:03.901Z,3.57
2019-03-03T15:39:33.292Z,2.73
2019-03-03T15:42:02.673Z,2.67
2019-03-03T15:44:32.028Z,2.20
2019-03-03T15:47:01.440Z,2.93
2019-03-03T15:49:31.756Z,2.03
2019-03-03T15:52:01.104Z,2.37
2019-03-03T15:54:30.468Z,2.83
2019-03-03T15:56:59.804Z,3.57
2019-03-03T15:59:29.192Z,4.47
2019-03-03T16:01:58.608Z,5.23
2019-03-03T16:04:28.002Z,3.63
2019-03-03T16:06:57.402Z,5.00
2019-03-03T16:09:26.894Z,3.63
2019-03-03T16:11:56.216Z,5.60
2019-03-03T16:14:25.665Z,4.43
2019-03-03T16:16:55.001Z,4.37
2019-03-03T16:19:24.415Z,10.03
2019-03-03T16:21:53.847Z,11.50
2019-03-03T16:24:23.221Z,10.10
2019-03-03T16:26:52.687Z,4.13
2019-03-03T16:29:22.018Z,3.60
2019-03-03T16:31:51.392Z,4.00
2019-03-03T16:34:20.792Z,3.63
2019-03-03T16:36:50.123Z,3.67
2019-03-03T16:39:19.586Z,3.07
2019-03-03T16:41:49.004Z,2.60
2019-03-03T16:44:18.400Z,3.17
2019-03-03T16:46:47.729Z,3.53
2019-03-03T16:49:17.064Z,4.17
2019-03-03T16:51:46.424Z,1.90
2019-03-03T16:54:15.770Z,3.10
2019-03-03T16:56:45.148Z,2.43
2019-03-03T16:59:14.555Z,2.30
2019-03-03T17:01:43.980Z,2.30
2019-03-03T17:04:13.368Z,3.10
2019-03-03T17:06:42.808Z,5.97
2019-03-03T17:09:12.851Z,4.80
2019-03-03T17:11:42.292Z,2.53
2019-03-03T17:14:11.661Z,2.17
2019-03-03T17:16:41.019Z,2.73
2019-03-03T17:19:10.362Z,2.03
2019-03-03T17:21:39.728Z,1.73
2019-03-03T17:24:09.165Z,4.60
2019-03-03T17:26:39.492Z,5.90
2019-03-03T17:29:08.841Z,5.83
2019-03-03T17:31:38.194Z,6.93
2019-03-03T17:34:13.069Z,6.43
2019-03-03T17:36:38.645Z,5.30
2019-03-03T17:39:08.683Z,9.83
2019-03-03T17:41:38.056Z,9.37
2019-03-03T17:44:07.592Z,12.20
2019-03-03T17:46:36.880Z,7.97
2019-03-03T17:49:06.172Z,4.00
2019-03-03T17:51:35.488Z,5.03
2019-03-03T17:54:04.812Z,3.47
2019-03-03T17:56:34.209Z,4.67
2019-03-03T17:59:03.572Z,6.37
2019-03-03T18:01:32.945Z,5.20
2019-03-03T18:04:02.310Z,6.43
2019-03-03T18:06:38.547Z,7.53
2019-03-03T18:09:02.841Z,8.00
2019-03-03T18:11:32.146Z,7.33
2019-03-03T18:14:01.469Z,7.27
2019-03-03T18:16:31.638Z,7.43
2019-03-03T18:19:01.026Z,6.83
2019-03-03T18:21:30.369Z,6.27
2019-03-03T18:23:59.656Z,5.97
2019-03-03T18:26:29.005Z,7.80
2019-03-03T18:28:58.361Z,10.77
2019-03-03T18:31:27.671Z,10.83
2019-03-03T18:33:57.017Z,16.80
2019-03-03T18:36:26.360Z,12.53
2019-03-03T18:38:55.664Z,10.20
2019-03-03T18:41:25.008Z,9.87
2019-03-03T18:43:54.370Z,7.93
2019-03-03T18:46:23.807Z,6.23
2019-03-03T18:48:53.424Z,5.40
2019-03-03T18:51:22.804Z,5.37
2019-03-03T18:53:52.223Z,4.30
2019-03-03T18:56:21.584Z,4.83
2019-03-03T18:58:50.932Z,4.30
2019-03-03T19:01:20.704Z,4.57
2019-03-03T19:03:50.186Z,4.17
2019-03-03T19:06:19.595Z,5.10
2019-03-03T19:08:49.100Z,5.50
2019-03-03T19:11:18.634Z,7.10
2019-03-03T19:13:48.120Z,4.53
2019-03-03T19:16:17.536Z,4.67
2019-03-03T19:18:46.982Z,3.83
2019-03-03T19:21:16.373Z,3.93
2019-03-03T19:23:46.841Z,4.07
2019-03-03T19:26:16.312Z,8.77
2019-03-03T19:28:45.768Z,10.60
2019-03-03T19:31:15.221Z,8.57
2019-03-03T19:33:50.614Z,5.77
2019-03-03T19:36:19.973Z,16.20
2019-03-03T19:38:49.405Z,12.17
2019-03-03T19:41:18.814Z,6.83
2019-03-03T19:43:48.194Z,4.07
2019-03-03T19:46:17.630Z,3.90
2019-03-03T19:48:47.007Z,6.17
2019-03-03T19:51:16.386Z,3.43
2019-03-03T19:53:45.814Z,8.80
2019-03-03T19:56:15.233Z,4.43
2019-03-03T19:58:44.682Z,3.00
2019-03-03T20:01:14.089Z,3.27
2019-03-03T20:03:43.524Z,3.00
2019-03-03T20:06:12.946Z,3.63
2019-03-03T20:08:42.328Z,4.33
2019-03-03T20:11:11.736Z,7.83
2019-03-03T20:13:41.129Z,7.73
2019-03-03T20:16:10.614Z,8.23
2019-03-03T20:18:41.340Z,8.83
2019-03-03T20:21:11.152Z,6.57
2019-03-03T20:23:40.580Z,7.23
2019-03-03T20:26:09.945Z,6.50
2019-03-03T20:28:39.431Z,6.80
2019-03-03T20:31:08.920Z,8.00
2019-03-03T20:33:38.332Z,6.13
2019-03-03T20:36:07.815Z,6.80
2019-03-03T20:38:37.340Z,6.37
2019-03-03T20:41:06.684Z,7.73
2019-03-03T20:43:36.120Z,6.43
2019-03-03T20:46:05.489Z,9.73
2019-03-03T20:48:34.826Z,6.37
2019-03-03T20:51:04.568Z,5.87
2019-03-03T20:53:33.970Z,7.40
2019-03-03T20:56:03.537Z,7.80
2019-03-03T20:58:33.005Z,10.30
2019-03-03T21:01:02.459Z,10.67
2019-03-03T21:03:31.830Z,10.40
2019-03-03T21:06:02.131Z,10.37
2019-03-03T21:08:33.302Z,11.20
2019-03-03T21:11:03.128Z,16.83
2019-03-03T21:13:32.639Z,18.63
2019-03-03T21:16:02.028Z,21.30
2019-03-03T21:18:31.549Z,18.33
2019-03-03T21:21:00.961Z,16.50
2019-03-03T21:23:30.355Z,11.00
2019-03-03T21:25:59.894Z,7.23
2019-03-03T21:28:29.216Z,5.57
2019-03-03T21:30:58.583Z,4.70
2019-03-03T21:33:27.872Z,4.20
2019-03-03T21:35:57.271Z,4.33
2019-03-03T21:38:26.603Z,4.40
2019-03-03T21:40:56.053Z,4.33
2019-03-03T21:43:25.621Z,4.17
2019-03-03T21:45:55.066Z,5.30
2019-03-03T21:48:25.044Z,4.80
2019-03-03T21:50:54.484Z,4.17
2019-03-03T21:53:23.810Z,3.67
2019-03-03T21:55:53.127Z,3.73
2019-03-03T21:58:22.500Z,4.83
2019-03-03T22:00:51.817Z,4.97
2019-03-03T22:03:21.144Z,3.97
2019-03-03T22:05:50.485Z,4.23
2019-03-03T22:08:19.816Z,4.27
2019-03-03T22:10:49.084Z,4.10
2019-03-03T22:13:18.412Z,3.87
2019-03-03T22:15:47.796Z,3.57
2019-03-03T22:18:17.115Z,4.80
2019-03-03T22:20:46.404Z,4.67
2019-03-03T22:23:15.740Z,3.67
2019-03-03T22:25:45.132Z,3.50
2019-03-03T22:28:14.476Z,3.10
2019-03-03T22:30:43.832Z,4.53
2019-03-03T22:33:13.101Z,4.43
2019-03-03T22:35:42.412Z,3.10
2019-03-03T22:38:11.712Z,3.77
2019-03-03T22:40:41.048Z,4.67
2019-03-03T22:43:10.319Z,5.00
2019-03-03T22:45:39.572Z,4.37
2019-03-03T22:48:08.880Z,4.77
2019-03-03T22:50:38.236Z,7.83
2019-03-03T22:53:07.504Z,5.67
2019-03-03T22:55:40.233Z,4.20
2019-03-03T22:58:09.378Z,3.50
2019-03-03T23:00:51.697Z,3.80
2019-03-03T23:03:27.813Z,4.83
2019-03-03T23:06:31.889Z,3.60
2019-03-03T23:09:30.752Z,3.87
2019-03-03T23:12:15.316Z,3.37
2019-03-03T23:15:21.912Z,4.47
2019-03-03T23:18:31.307Z,5.63
2019-03-03T23:21:25.409Z,6.70
2019-03-03T23:24:26.901Z,4.93
2019-03-03T23:26:56.203Z,5.27
2019-03-03T23:29:25.510Z,4.37
2019-03-03T23:31:54.912Z,4.23
2019-03-03T23:34:24.186Z,3.77
2019-03-03T23:36:53.556Z,4.00
2019-03-03T23:39:22.840Z,3.47
2019-03-03T23:41:52.168Z,3.87
2019-03-03T23:44:21.494Z,5.30
2019-03-03T23:46:50.820Z,4.50
2019-03-03T23:49:20.096Z,5.20
2019-03-03T23:51:49.364Z,3.87
2019-03-03T23:54:18.684Z,3.87
2019-03-03T23:56:48.013Z,3.80
2019-03-03T23:59:17.280Z,3.23
